Terminal Aerodrome Forecast
Issued by NWS Paducah, KY

Home | Current Version | Previous Version | Text Only | Print | Product List | Glossary On
Versions: 1 2 3 4 5 6 7 8 9 10 11 12 13
000
FTUS43 KPAH 242333
TAFEVV
TAF
KEVV 242333Z 2500/2524 18012G19KT P6SM BKN050
     FM250100 17007KT P6SM BKN180
     FM250400 15006KT P6SM SCT035 BKN150 WS020/19040KT
     FM251100 16012G19KT P6SM BKN035
     FM251500 17013G21KT P6SM -SHRA BKN035
     FM251700 17013G21KT 6SM -SHRA VCTS OVC025CB=

USA.gov is the U.S. government's official web portal to all federal, state and local government web resources and services.